Huvudsida
METAR-TAF:

METAR-TAF

Flygplatser :

Pratica Di Mare, Italien

latitud: 41-39N, longitud: 012-27E, höjd: 6 m

Aktuellt väderrapport

Denna rapport gjordes för 26 minuter sedan, klockan 13:55 UTC
Vind 7 kt från väst
Temperatur 14°C
Fuktighet 63%
Tryck 1031 hPa
Sikt 10 km eller mer
Inga moln under 1 500 m eller inga cumulonimbus

METAR: LIRE 221355Z 26007KT CAVOK 14/07 Q1031 RMK SKC VIS MIN 9999 WIND THR13 25007KT WIND THR31 26007KT BLU

Tid: 15:21 (14:21 UTC)

Väderprognos

Denna rapport gjordes för 3 timmar och 21 minuter sedan, klockan 11:00 UTC
Prognos gäller från 22 kl. 12 UTC till 22 kl. 21 UTC
Vind 5 kt från syd
Sikt 10 km eller mer
Inga moln under 1 500 m eller inga cumulonimbus

TAF: LIRE 221100Z 2212/2221 18005KT CAVOK

Aktuella väderrapporter och prognoser från 4000 flygplatser (METAR- och TAF-rapporter).

De tillgängliga stationerna syns som gula och röda prickar på kartan.

För musen över prickarna för att se namnen på stationerna.

Klicka sedan för att få väderrapporter och prognoser.

För att ändra kartan: Klicka på de gröna knapparna med ett svart kors på för att zooma in; den gröna knappen med ett streck på för att zooma ut; eller på de gröna pilarna för angränsande kartor.


METAR-TAF: